createdAt,value
2019-02-18T00:00:38.623Z,6.90
2019-02-18T00:03:07.139Z,6.90
2019-02-18T00:05:35.237Z,6.80
2019-02-18T00:08:02.946Z,6.80
2019-02-18T00:10:30.713Z,6.80
2019-02-18T00:12:58.604Z,6.80
2019-02-18T00:15:26.759Z,6.80
2019-02-18T00:17:54.572Z,6.90
2019-02-18T00:20:22.445Z,7.00
2019-02-18T00:22:50.219Z,6.90
2019-02-18T00:25:18.147Z,7.10
2019-02-18T00:27:47.011Z,7.10
2019-02-18T00:30:14.784Z,7.10
2019-02-18T00:32:43.498Z,7.10
2019-02-18T00:35:11.330Z,7.10
2019-02-18T00:37:39.190Z,7.10
2019-02-18T00:40:07.094Z,7.10
2019-02-18T00:42:34.980Z,7.10
2019-02-18T00:45:02.921Z,7.00
2019-02-18T00:47:30.772Z,7.00
2019-02-18T00:49:58.542Z,7.10
2019-02-18T00:52:26.329Z,7.10
2019-02-18T00:54:54.173Z,7.00
2019-02-18T00:57:22.115Z,7.00
2019-02-18T00:59:49.805Z,7.00
2019-02-18T01:02:17.680Z,6.90
2019-02-18T01:04:47.501Z,7.00
2019-02-18T01:07:15.418Z,7.00
2019-02-18T01:09:43.153Z,7.00
2019-02-18T01:12:10.864Z,6.90
2019-02-18T01:14:38.598Z,6.80
2019-02-18T01:17:06.396Z,6.70
2019-02-18T01:19:35.255Z,6.70
2019-02-18T01:22:02.946Z,6.60
2019-02-18T01:24:30.702Z,6.40
2019-02-18T01:26:58.365Z,6.60
2019-02-18T01:29:26.072Z,6.60
2019-02-18T01:31:53.804Z,6.60
2019-02-18T01:34:21.542Z,6.50
2019-02-18T01:36:49.265Z,6.50
2019-02-18T01:39:17.006Z,6.50
2019-02-18T01:41:44.744Z,6.50
2019-02-18T01:44:12.608Z,6.60
2019-02-18T01:46:40.371Z,6.60
2019-02-18T01:49:08.252Z,6.50
2019-02-18T01:51:36.056Z,6.50
2019-02-18T01:54:03.812Z,6.50
2019-02-18T01:56:31.506Z,6.50
2019-02-18T01:58:59.243Z,6.50
2019-02-18T02:01:27.328Z,6.50
2019-02-18T02:03:55.015Z,6.60
2019-02-18T02:06:22.706Z,6.60
2019-02-18T02:08:50.434Z,6.60
2019-02-18T02:11:18.098Z,6.60
2019-02-18T02:13:45.806Z,6.70
2019-02-18T02:16:13.450Z,6.80
2019-02-18T02:18:41.180Z,6.70
2019-02-18T02:21:09.093Z,6.70
2019-02-18T02:23:36.788Z,6.60
2019-02-18T02:26:04.546Z,6.60
2019-02-18T02:28:32.398Z,6.50
2019-02-18T02:31:01.304Z,6.50
2019-02-18T02:33:29.276Z,6.40
2019-02-18T02:35:57.058Z,6.40
2019-02-18T02:38:24.776Z,6.50
2019-02-18T02:40:52.614Z,6.50
2019-02-18T02:43:20.360Z,6.50
2019-02-18T02:45:48.059Z,6.60
2019-02-18T02:48:15.735Z,6.90
2019-02-18T02:50:43.534Z,6.60
2019-02-18T02:53:11.253Z,6.50
2019-02-18T02:55:38.914Z,6.50
2019-02-18T02:58:06.576Z,6.40
2019-02-18T03:00:34.332Z,6.40
2019-02-18T03:03:02.094Z,6.40
2019-02-18T03:05:29.802Z,6.30
2019-02-18T03:07:57.603Z,6.30
2019-02-18T03:10:25.298Z,6.30
2019-02-18T03:12:53.027Z,6.30
2019-02-18T03:15:20.718Z,6.40
2019-02-18T03:17:48.484Z,6.40
2019-02-18T03:20:16.084Z,6.40
2019-02-18T03:22:43.823Z,6.50
2019-02-18T03:25:25.313Z,6.50
2019-02-18T03:28:08.804Z,6.40
2019-02-18T03:30:39.381Z,6.40
2019-02-18T03:33:07.132Z,6.40
2019-02-18T03:35:34.905Z,6.40
2019-02-18T03:38:02.936Z,6.30
2019-02-18T03:40:30.762Z,6.30
2019-02-18T03:42:58.526Z,6.30
2019-02-18T03:45:26.442Z,6.30
2019-02-18T03:47:54.333Z,6.30
2019-02-18T03:50:22.188Z,6.30
2019-02-18T03:52:49.822Z,6.30
2019-02-18T03:55:17.581Z,6.30
2019-02-18T03:57:45.298Z,6.30
2019-02-18T04:00:13.324Z,6.30
2019-02-18T04:02:41.066Z,6.30
2019-02-18T04:05:09.123Z,6.30
2019-02-18T04:07:36.798Z,6.20
2019-02-18T04:10:04.708Z,6.20
2019-02-18T04:12:32.414Z,6.20
2019-02-18T04:15:00.473Z,6.20
2019-02-18T04:17:28.133Z,6.20
2019-02-18T04:19:55.925Z,6.20
2019-02-18T04:22:23.761Z,6.20
2019-02-18T04:24:53.089Z,6.40
2019-02-18T04:27:20.807Z,6.20
2019-02-18T04:29:48.560Z,6.30
2019-02-18T04:32:16.247Z,6.30
2019-02-18T04:34:44.008Z,6.20
2019-02-18T04:37:11.776Z,6.30
2019-02-18T04:39:39.544Z,6.20
2019-02-18T04:42:07.219Z,6.20
2019-02-18T04:44:35.107Z,6.30
2019-02-18T04:47:03.422Z,6.20
2019-02-18T04:49:31.140Z,6.20
2019-02-18T04:51:58.826Z,6.20
2019-02-18T04:54:26.559Z,6.20
2019-02-18T04:56:56.555Z,6.30
2019-02-18T04:59:24.212Z,6.40
2019-02-18T05:01:51.956Z,6.50
2019-02-18T05:04:19.672Z,6.60
2019-02-18T05:06:47.305Z,6.70
2019-02-18T05:09:15.075Z,6.80
2019-02-18T05:11:42.836Z,6.80
2019-02-18T05:14:11.028Z,6.80
2019-02-18T05:16:38.850Z,6.80
2019-02-18T05:19:06.451Z,6.70
2019-02-18T05:21:36.589Z,6.70
2019-02-18T05:24:04.407Z,6.70
2019-02-18T05:26:32.138Z,6.70
2019-02-18T05:28:59.910Z,6.70
2019-02-18T05:31:27.656Z,6.70
2019-02-18T05:33:56.417Z,6.70
2019-02-18T05:36:25.494Z,6.70
2019-02-18T05:38:54.659Z,6.70
2019-02-18T05:41:24.196Z,6.70
2019-02-18T05:43:55.043Z,6.70
2019-02-18T05:46:24.129Z,6.70
2019-02-18T05:48:54.266Z,6.70
2019-02-18T05:51:29.120Z,6.60
2019-02-18T05:53:59.605Z,6.60
2019-02-18T05:56:30.593Z,6.50
2019-02-18T05:59:01.181Z,6.50
2019-02-18T06:01:29.796Z,6.50
2019-02-18T06:04:00.185Z,6.50
2019-02-18T06:06:28.863Z,6.50
2019-02-18T06:08:57.074Z,6.50
2019-02-18T06:11:31.046Z,6.50
2019-02-18T06:14:02.702Z,6.50
2019-02-18T06:16:31.387Z,6.50
2019-02-18T06:18:59.986Z,6.60
2019-02-18T06:21:28.421Z,6.60
2019-02-18T06:23:58.289Z,6.60
2019-02-18T06:26:29.499Z,6.60
2019-02-18T06:29:00.569Z,6.60
2019-02-18T06:31:29.173Z,6.60
2019-02-18T06:34:06.493Z,6.70
2019-02-18T06:36:37.083Z,6.70
2019-02-18T06:39:06.510Z,6.70
2019-02-18T06:41:34.703Z,6.70
2019-02-18T06:44:02.758Z,6.80
2019-02-18T06:46:33.230Z,6.80
2019-02-18T06:49:20.901Z,6.80
2019-02-18T06:51:48.555Z,6.90
2019-02-18T06:54:16.443Z,6.90
2019-02-18T06:57:02.114Z,6.80
2019-02-18T06:59:36.048Z,6.70
2019-02-18T07:02:08.853Z,6.70
2019-02-18T07:04:58.566Z,6.70
2019-02-18T07:07:57.335Z,6.70
2019-02-18T07:10:37.572Z,6.70
2019-02-18T07:13:05.315Z,6.80
2019-02-18T07:15:33.522Z,6.80
2019-02-18T07:18:01.300Z,6.80
2019-02-18T07:20:29.165Z,6.90
2019-02-18T07:22:57.955Z,7.00
2019-02-18T07:25:25.909Z,7.00
2019-02-18T07:27:54.090Z,6.90
2019-02-18T07:30:22.032Z,7.10
2019-02-18T07:32:49.755Z,7.20
2019-02-18T07:35:17.449Z,7.20
2019-02-18T07:37:45.167Z,7.30
2019-02-18T07:40:13.362Z,7.40
2019-02-18T07:42:41.428Z,7.40
2019-02-18T07:45:09.771Z,7.40
2019-02-18T07:47:37.747Z,7.50
2019-02-18T07:50:06.625Z,7.50
2019-02-18T07:52:35.310Z,7.60
2019-02-18T07:55:03.138Z,7.70
2019-02-18T07:57:33.163Z,7.80
2019-02-18T08:00:02.061Z,8.10
2019-02-18T08:02:29.801Z,7.90
2019-02-18T08:04:57.512Z,8.00
2019-02-18T08:07:25.201Z,8.00
2019-02-18T08:09:52.991Z,8.10
2019-02-18T08:12:20.708Z,8.20
2019-02-18T08:14:48.723Z,8.30
2019-02-18T08:17:16.391Z,8.40
2019-02-18T08:19:44.205Z,8.50
2019-02-18T08:22:11.983Z,8.60
2019-02-18T08:24:39.698Z,8.70
2019-02-18T08:27:07.778Z,8.90
2019-02-18T08:29:35.619Z,9.10
2019-02-18T08:32:03.798Z,9.20
2019-02-18T08:34:31.717Z,9.40
2019-02-18T08:36:59.431Z,9.40
2019-02-18T08:39:27.222Z,9.50
2019-02-18T08:41:54.881Z,9.50
2019-02-18T08:44:22.644Z,9.60
2019-02-18T08:46:50.918Z,9.70
2019-02-18T08:49:18.693Z,9.70
2019-02-18T08:51:46.508Z,9.70
2019-02-18T08:54:14.500Z,9.70
2019-02-18T08:56:42.320Z,9.60
2019-02-18T08:59:11.111Z,9.60
2019-02-18T09:01:38.860Z,9.60
2019-02-18T09:04:06.570Z,9.60
2019-02-18T09:06:34.298Z,9.60
2019-02-18T09:09:03.805Z,9.60
2019-02-18T09:11:32.713Z,9.70
2019-02-18T09:14:01.838Z,9.70
2019-02-18T09:16:29.917Z,9.80
2019-02-18T09:18:57.642Z,9.90
2019-02-18T09:21:27.347Z,10.00
2019-02-18T09:24:06.201Z,10.00
2019-02-18T09:26:34.740Z,10.10
2019-02-18T09:29:02.762Z,10.10
2019-02-18T09:31:32.956Z,10.20
2019-02-18T09:34:00.654Z,10.30
2019-02-18T09:36:29.150Z,10.40
2019-02-18T09:38:57.151Z,10.40
2019-02-18T09:41:24.902Z,10.50
2019-02-18T09:43:52.666Z,10.50
2019-02-18T09:46:20.252Z,10.60
2019-02-18T09:48:47.905Z,10.70
2019-02-18T09:51:15.492Z,10.70
2019-02-18T09:53:43.070Z,10.70
2019-02-18T09:56:10.581Z,10.70
2019-02-18T09:58:38.136Z,10.80
2019-02-18T10:01:05.792Z,10.80
2019-02-18T10:03:33.380Z,10.80
2019-02-18T10:06:00.948Z,10.70
2019-02-18T10:08:28.554Z,10.60
2019-02-18T10:10:56.487Z,10.70
2019-02-18T10:13:24.159Z,10.70
2019-02-18T10:15:51.820Z,10.70
2019-02-18T10:18:19.530Z,10.70
2019-02-18T10:20:47.134Z,10.70
2019-02-18T10:23:14.764Z,10.60
2019-02-18T10:25:42.497Z,10.60
2019-02-18T10:28:10.080Z,10.60
2019-02-18T10:30:38.412Z,10.70
2019-02-18T10:33:06.004Z,10.70
2019-02-18T10:35:33.576Z,10.60
2019-02-18T10:38:01.233Z,10.60
2019-02-18T10:40:28.830Z,10.60
2019-02-18T10:42:56.420Z,10.60
2019-02-18T10:45:24.102Z,10.50
2019-02-18T10:47:51.824Z,10.50
2019-02-18T10:50:19.476Z,10.50
2019-02-18T10:52:47.216Z,10.40
2019-02-18T10:55:15.252Z,10.40
2019-02-18T10:57:42.944Z,10.40
2019-02-18T11:00:11.225Z,10.30
2019-02-18T11:02:38.934Z,10.30
2019-02-18T11:05:07.348Z,10.30
2019-02-18T11:07:35.022Z,10.40
2019-02-18T11:10:02.924Z,10.50
2019-02-18T11:12:30.552Z,10.50
2019-02-18T11:14:58.113Z,10.50
2019-02-18T11:17:25.760Z,10.50
2019-02-18T11:19:53.623Z,10.60
2019-02-18T11:22:21.314Z,10.60
2019-02-18T11:24:49.061Z,10.80
2019-02-18T11:27:16.771Z,10.80
2019-02-18T11:29:44.407Z,10.80
2019-02-18T11:32:12.149Z,10.90
2019-02-18T11:34:39.808Z,11.00
2019-02-18T11:37:07.773Z,11.10
2019-02-18T11:39:35.418Z,11.10
2019-02-18T11:42:03.108Z,11.20
2019-02-18T11:44:30.726Z,11.20
2019-02-18T11:46:58.324Z,11.40
2019-02-18T11:49:26.149Z,11.30
2019-02-18T11:51:57.169Z,11.30
2019-02-18T11:54:24.880Z,11.30
2019-02-18T11:56:52.642Z,11.30
2019-02-18T11:59:24.275Z,11.30
2019-02-18T12:01:50.263Z,11.30
2019-02-18T12:04:17.971Z,11.30
2019-02-18T12:06:45.550Z,11.20
2019-02-18T12:09:13.429Z,11.20
2019-02-18T12:11:41.122Z,11.10
2019-02-18T12:14:08.857Z,11.20
2019-02-18T12:16:36.504Z,11.10
2019-02-18T12:19:04.159Z,11.20
2019-02-18T12:21:31.848Z,11.20
2019-02-18T12:23:59.511Z,11.10
2019-02-18T12:26:27.313Z,11.10
2019-02-18T12:28:54.931Z,11.10
2019-02-18T12:31:22.625Z,11.00
2019-02-18T12:33:52.048Z,11.00
2019-02-18T12:36:19.951Z,11.00
2019-02-18T12:38:47.589Z,11.00
2019-02-18T12:41:18.513Z,11.00
2019-02-18T12:43:46.724Z,11.00
2019-02-18T12:46:16.063Z,11.10
2019-02-18T12:48:43.844Z,10.90
2019-02-18T12:51:11.815Z,10.80
2019-02-18T12:53:39.538Z,10.80
2019-02-18T12:56:07.234Z,10.70
2019-02-18T12:58:34.880Z,10.60
2019-02-18T13:01:05.262Z,10.60
2019-02-18T13:03:33.455Z,10.60
2019-02-18T13:06:01.336Z,10.70
2019-02-18T13:08:29.153Z,10.80
2019-02-18T13:10:56.743Z,10.80
2019-02-18T13:13:24.338Z,10.70
2019-02-18T13:15:51.973Z,10.60
2019-02-18T13:18:19.594Z,10.50
2019-02-18T13:20:48.157Z,10.40
2019-02-18T13:23:15.870Z,10.40
2019-02-18T13:25:47.453Z,10.30
2019-02-18T13:28:13.007Z,10.30
2019-02-18T13:30:40.720Z,10.10
2019-02-18T13:33:08.428Z,10.30
2019-02-18T13:35:36.052Z,10.30
2019-02-18T13:38:03.689Z,10.30
2019-02-18T13:40:31.394Z,10.30
2019-02-18T13:42:59.260Z,10.30
2019-02-18T13:45:26.824Z,10.30
2019-02-18T13:47:54.495Z,10.30
2019-02-18T13:50:22.268Z,10.30
2019-02-18T13:52:49.892Z,10.20
2019-02-18T13:55:17.744Z,10.20
2019-02-18T13:57:45.417Z,10.20
2019-02-18T14:00:21.660Z,10.20
2019-02-18T14:02:49.729Z,10.20
2019-02-18T14:05:18.123Z,10.10
2019-02-18T14:07:45.780Z,10.10
2019-02-18T14:10:13.626Z,10.00
2019-02-18T14:12:41.207Z,10.00
2019-02-18T14:15:09.703Z,10.00
2019-02-18T14:17:37.287Z,9.90
2019-02-18T14:20:08.492Z,9.90
2019-02-18T14:22:36.095Z,9.80
2019-02-18T14:25:04.039Z,9.80
2019-02-18T14:27:32.058Z,9.70
2019-02-18T14:30:00.098Z,9.70
2019-02-18T14:32:27.906Z,9.60
2019-02-18T14:34:55.569Z,9.60
2019-02-18T14:37:26.887Z,9.60
2019-02-18T14:39:54.512Z,9.50
2019-02-18T14:42:24.605Z,9.50
2019-02-18T14:44:52.284Z,9.40
2019-02-18T14:47:19.912Z,9.40
2019-02-18T14:49:47.696Z,9.40
2019-02-18T14:52:15.970Z,9.40
2019-02-18T14:54:46.463Z,9.30
2019-02-18T14:57:14.397Z,9.30
2019-02-18T14:59:42.723Z,9.30
2019-02-18T15:02:11.694Z,9.30
2019-02-18T15:04:39.778Z,9.20
2019-02-18T15:07:14.131Z,9.20
2019-02-18T15:09:44.357Z,9.10
2019-02-18T15:12:18.196Z,9.00
2019-02-18T15:17:18.825Z,8.80
2019-02-18T15:19:47.008Z,8.60
2019-02-18T15:22:14.901Z,8.50
2019-02-18T15:24:43.201Z,8.40
2019-02-18T15:27:12.266Z,8.40
2019-02-18T15:29:40.956Z,8.30
2019-02-18T15:32:09.024Z,8.20
2019-02-18T15:34:37.331Z,8.10
2019-02-18T15:37:05.498Z,7.90
2019-02-18T15:39:37.135Z,7.80
2019-02-18T15:42:05.891Z,8.00
2019-02-18T15:44:34.236Z,7.60
2019-02-18T15:47:02.509Z,7.50
2019-02-18T15:49:30.667Z,7.40
2019-02-18T15:51:58.916Z,7.30
2019-02-18T15:54:27.349Z,7.10
2019-02-18T15:56:55.865Z,6.90
2019-02-18T15:59:24.183Z,6.80
2019-02-18T16:01:52.519Z,6.70
2019-02-18T16:04:20.709Z,6.60
2019-02-18T16:06:48.883Z,6.50
2019-02-18T16:09:17.333Z,6.50
2019-02-18T16:11:45.541Z,6.40
2019-02-18T16:14:14.328Z,6.30
2019-02-18T16:16:43.945Z,6.20
2019-02-18T16:19:12.013Z,6.10
2019-02-18T16:21:40.359Z,6.10
2019-02-18T16:24:19.598Z,6.00
2019-02-18T16:26:41.112Z,5.90
2019-02-18T16:29:09.688Z,5.70
2019-02-18T16:31:37.697Z,5.60
2019-02-18T16:34:06.268Z,5.50
2019-02-18T16:36:38.235Z,5.50
2019-02-18T16:39:07.805Z,5.40
2019-02-18T16:41:36.367Z,5.20
2019-02-18T16:44:04.615Z,5.20
2019-02-18T16:46:33.755Z,5.10
2019-02-18T16:49:02.084Z,5.10
2019-02-18T16:51:30.626Z,5.00
2019-02-18T16:53:59.135Z,5.00
2019-02-18T16:56:27.682Z,4.90
2019-02-18T16:58:55.888Z,4.90
2019-02-18T17:01:25.545Z,4.90
2019-02-18T17:03:54.145Z,5.10
2019-02-18T17:06:22.358Z,5.00
2019-02-18T17:08:50.528Z,5.00
2019-02-18T17:18:47.556Z,4.90
2019-02-18T17:21:17.109Z,4.90
2019-02-18T17:23:45.317Z,4.80
2019-02-18T17:26:14.159Z,4.80
2019-02-18T17:28:42.184Z,4.80
2019-02-18T17:31:12.210Z,4.70
2019-02-18T17:33:40.496Z,4.70
2019-02-18T17:36:09.021Z,4.70
2019-02-18T17:38:37.246Z,4.70
2019-02-18T17:41:05.460Z,4.70
2019-02-18T17:43:34.011Z,4.60
2019-02-18T17:46:01.975Z,4.50
2019-02-18T17:48:30.531Z,4.50
2019-02-18T17:50:59.329Z,4.40
2019-02-18T17:53:30.790Z,4.40
2019-02-18T17:55:59.214Z,4.30
2019-02-18T17:58:27.764Z,4.30
2019-02-18T18:00:58.086Z,4.30
2019-02-18T18:03:26.537Z,4.20
2019-02-18T18:05:54.801Z,4.20
2019-02-18T18:08:22.879Z,4.30
2019-02-18T18:10:51.075Z,4.10
2019-02-18T18:13:24.997Z,4.10
2019-02-18T18:15:49.601Z,4.00
2019-02-18T18:18:19.783Z,3.90
2019-02-18T18:20:47.932Z,3.90
2019-02-18T18:23:17.006Z,3.90
2019-02-18T18:25:48.327Z,3.90
2019-02-18T18:28:16.302Z,3.80
2019-02-18T18:30:44.671Z,3.80
2019-02-18T18:33:13.137Z,3.80
2019-02-18T18:35:41.530Z,3.80
2019-02-18T18:38:09.794Z,3.70
2019-02-18T18:40:37.785Z,3.70
2019-02-18T18:43:06.021Z,3.70
2019-02-18T18:45:35.045Z,3.60
2019-02-18T18:48:05.314Z,3.60
2019-02-18T18:53:03.929Z,3.40
2019-02-18T18:55:32.669Z,3.40
2019-02-18T18:58:00.983Z,3.40
2019-02-18T19:00:31.715Z,3.40
2019-02-18T19:03:02.493Z,3.40
2019-02-18T19:05:31.515Z,3.40
2019-02-18T19:08:02.223Z,3.40
2019-02-18T19:10:32.524Z,3.40
2019-02-18T19:13:00.785Z,3.30
2019-02-18T19:15:30.786Z,3.30
2019-02-18T19:17:59.276Z,3.40
2019-02-18T19:20:27.908Z,3.20
2019-02-18T19:22:55.865Z,3.20
2019-02-18T19:25:27.393Z,3.10
2019-02-18T19:27:55.287Z,3.10
2019-02-18T19:30:24.864Z,3.00
2019-02-18T19:32:53.033Z,2.80
2019-02-18T19:35:21.441Z,2.80
2019-02-18T19:37:50.629Z,2.70
2019-02-18T19:40:21.061Z,2.70
2019-02-18T19:42:49.627Z,2.70
2019-02-18T19:45:18.926Z,2.60
2019-02-18T19:47:47.918Z,2.50
2019-02-18T19:50:18.125Z,2.50
2019-02-18T19:52:46.020Z,2.50
2019-02-18T19:55:16.512Z,2.50
2019-02-18T19:57:44.620Z,2.40
2019-02-18T20:00:14.847Z,2.40
2019-02-18T20:02:43.615Z,2.40
2019-02-18T20:05:13.958Z,2.40
2019-02-18T20:07:44.067Z,2.40
2019-02-18T20:10:12.565Z,2.30
2019-02-18T20:12:41.465Z,2.30
2019-02-18T20:15:11.123Z,2.40
2019-02-18T20:17:39.281Z,2.40
2019-02-18T20:20:09.028Z,2.50
2019-02-18T20:22:37.327Z,2.50
2019-02-18T20:25:07.045Z,2.50
2019-02-18T20:27:35.078Z,2.40
2019-02-18T20:30:05.754Z,2.40
2019-02-18T20:32:34.175Z,2.10
2019-02-18T20:35:02.480Z,2.30
2019-02-18T20:37:30.586Z,2.30
2019-02-18T20:39:59.203Z,2.20
2019-02-18T20:42:27.283Z,2.20
2019-02-18T20:44:56.513Z,2.20
2019-02-18T20:47:24.679Z,2.20
2019-02-18T20:49:54.236Z,2.20
2019-02-18T20:52:22.497Z,2.20
2019-02-18T20:54:54.036Z,2.30
2019-02-18T20:57:23.210Z,2.40
2019-02-18T20:59:51.636Z,2.50
2019-02-18T21:02:19.658Z,2.60
2019-02-18T21:04:49.303Z,2.70
2019-02-18T21:07:17.348Z,2.60
2019-02-18T21:09:45.337Z,2.80
2019-02-18T21:12:19.771Z,2.90
2019-02-18T21:14:43.873Z,3.00
2019-02-18T21:17:12.229Z,3.20
2019-02-18T21:19:40.195Z,3.20
2019-02-18T21:22:08.954Z,3.30
2019-02-18T21:24:36.828Z,3.40
2019-02-18T21:27:04.893Z,3.40
2019-02-18T21:29:34.225Z,3.30
2019-02-18T21:32:02.484Z,3.30
2019-02-18T21:34:30.436Z,3.20
2019-02-18T21:36:58.619Z,3.20
2019-02-18T21:39:27.089Z,3.10
2019-02-18T21:41:57.632Z,3.10
2019-02-18T21:44:27.357Z,3.10
2019-02-18T21:46:55.700Z,3.00
2019-02-18T21:49:24.095Z,2.80
2019-02-18T21:51:52.224Z,2.80
2019-02-18T21:54:21.497Z,2.80
2019-02-18T21:56:49.444Z,2.80
2019-02-18T21:59:18.208Z,3.00
2019-02-18T22:01:46.681Z,2.80
2019-02-18T22:04:14.883Z,2.80
2019-02-18T22:06:42.723Z,2.80
2019-02-18T22:09:10.711Z,2.80
2019-02-18T22:11:38.821Z,2.80
2019-02-18T22:14:06.852Z,2.70
2019-02-18T22:16:35.103Z,2.70
2019-02-18T22:19:06.332Z,2.60
2019-02-18T22:21:37.029Z,2.60
2019-02-18T22:24:06.848Z,2.60
2019-02-18T22:26:34.690Z,2.60
2019-02-18T22:29:05.094Z,2.60
2019-02-18T22:31:35.388Z,2.50
2019-02-18T22:34:03.786Z,2.40
2019-02-18T22:36:31.805Z,2.30
2019-02-18T22:38:59.754Z,2.20
2019-02-18T22:41:27.963Z,2.10
2019-02-18T22:43:56.200Z,2.00
2019-02-18T22:46:35.944Z,1.90
2019-02-18T22:49:04.328Z,1.90
2019-02-18T22:51:32.975Z,2.00
2019-02-18T22:54:02.427Z,2.00
2019-02-18T22:56:30.356Z,1.90
2019-02-18T22:58:59.753Z,1.90
2019-02-18T23:01:27.900Z,1.80
2019-02-18T23:03:56.705Z,1.80
2019-02-18T23:06:25.210Z,1.80
2019-02-18T23:08:53.290Z,1.80
2019-02-18T23:11:21.606Z,1.70
2019-02-18T23:13:49.670Z,1.70
2019-02-18T23:16:17.765Z,1.60
2019-02-18T23:18:45.872Z,1.60
2019-02-18T23:21:14.031Z,1.50
2019-02-18T23:23:43.816Z,1.50
2019-02-18T23:26:11.875Z,1.80
2019-02-18T23:28:40.171Z,1.60
2019-02-18T23:31:08.306Z,1.50
2019-02-18T23:33:36.346Z,1.70
2019-02-18T23:36:04.730Z,1.70
2019-02-18T23:38:32.819Z,1.80
2019-02-18T23:41:04.658Z,1.70
2019-02-18T23:43:32.544Z,1.70
2019-02-18T23:46:00.498Z,2.00
2019-02-18T23:48:28.392Z,2.00
2019-02-18T23:50:56.440Z,2.10
2019-02-18T23:53:24.481Z,2.10
2019-02-18T23:55:52.391Z,2.00
2019-02-18T23:58:20.437Z,2.20
